createdAt,value
2023-01-03T00:00:51.419Z,97235.00
2023-01-03T00:05:02.311Z,97228.00
2023-01-03T00:09:08.631Z,97242.00
2023-01-03T00:13:45.135Z,97226.00
2023-01-03T00:17:48.143Z,97209.00
2023-01-03T00:21:52.664Z,97208.00
2023-01-03T00:26:31.304Z,97202.00
2023-01-03T00:30:34.465Z,97228.00
2023-01-03T00:34:37.824Z,97233.00
2023-01-03T00:38:42.238Z,97257.00
2023-01-03T00:43:02.597Z,97260.00
2023-01-03T00:47:05.738Z,97257.00
2023-01-03T00:51:13.110Z,97253.00
2023-01-03T00:55:17.622Z,97259.00
2023-01-03T00:59:22.416Z,97258.00
2023-01-03T01:03:28.636Z,97232.00
2023-01-03T01:07:32.212Z,97248.00
2023-01-03T01:11:39.399Z,97245.00
2023-01-03T01:16:40.235Z,97241.00
2023-01-03T01:20:43.255Z,97244.00
2023-01-03T01:24:48.604Z,97249.00
2023-01-03T01:29:23.874Z,97257.00
2023-01-03T01:33:29.054Z,97270.00
2023-01-03T01:37:32.812Z,97282.00
2023-01-03T01:41:54.551Z,97286.00
2023-01-03T01:45:59.971Z,97294.00
2023-01-03T01:50:16.374Z,97298.00
2023-01-03T01:54:20.707Z,97291.00
2023-01-03T01:58:27.442Z,97315.00
2023-01-03T02:02:32.248Z,97307.00
2023-01-03T02:07:06.694Z,97311.00
2023-01-03T02:11:25.063Z,97317.00
2023-01-03T02:15:51.590Z,97313.00
2023-01-03T02:20:11.798Z,97313.00
2023-01-03T02:24:43.671Z,97313.00
2023-01-03T02:29:30.762Z,97317.00
2023-01-03T02:33:54.981Z,97319.00
2023-01-03T02:38:01.365Z,97318.00
2023-01-03T02:42:29.084Z,97316.00
2023-01-03T02:46:39.170Z,97313.00
2023-01-03T02:50:47.750Z,97305.00
2023-01-03T02:55:23.385Z,97304.00
2023-01-03T02:59:32.622Z,97317.00
2023-01-03T03:03:38.960Z,97314.00
2023-01-03T03:07:43.855Z,97317.00
2023-01-03T03:12:08.422Z,97320.00
2023-01-03T03:16:42.391Z,97315.00
2023-01-03T03:21:05.918Z,97324.00
2023-01-03T03:25:14.557Z,97317.00
2023-01-03T03:29:20.049Z,97325.00
2023-01-03T03:33:27.204Z,97329.00
2023-01-03T03:37:35.679Z,97331.00
2023-01-03T03:42:02.522Z,97324.00
2023-01-03T03:46:13.924Z,97324.00
2023-01-03T03:50:23.855Z,97330.00
2023-01-03T03:54:29.593Z,97325.00
2023-01-03T03:58:50.621Z,97334.00
2023-01-03T04:02:56.600Z,97335.00
2023-01-03T04:07:03.554Z,97330.00
2023-01-03T04:11:07.239Z,97331.00
2023-01-03T04:15:12.352Z,97330.00
2023-01-03T04:19:15.447Z,97338.00
2023-01-03T04:23:20.231Z,97342.00
2023-01-03T04:27:25.490Z,97342.00
2023-01-03T04:31:32.581Z,97342.00
2023-01-03T04:35:36.066Z,97346.00
2023-01-03T04:39:39.412Z,97344.00
2023-01-03T04:44:07.711Z,97347.00
2023-01-03T04:48:12.399Z,97351.00
2023-01-03T04:52:16.141Z,97354.00
2023-01-03T04:56:31.126Z,97347.00
2023-01-03T05:00:34.335Z,97346.00
2023-01-03T05:04:38.938Z,97353.00
2023-01-03T05:08:43.533Z,97365.00
2023-01-03T05:13:00.104Z,97367.00
2023-01-03T05:17:04.190Z,97365.00
2023-01-03T05:21:33.410Z,97374.00
2023-01-03T05:25:51.706Z,97375.00
2023-01-03T05:29:57.082Z,97369.00
2023-01-03T05:34:00.620Z,97368.00
2023-01-03T05:38:07.097Z,97369.00
2023-01-03T05:42:11.834Z,97391.00
2023-01-03T05:46:14.990Z,97396.00
2023-01-03T05:50:18.295Z,97399.00
2023-01-03T05:54:24.992Z,97391.00
2023-01-03T05:58:32.637Z,97395.00
2023-01-03T06:02:35.762Z,97401.00
2023-01-03T06:07:15.111Z,97392.00
2023-01-03T06:11:19.935Z,97392.00
2023-01-03T06:15:23.109Z,97405.00
2023-01-03T06:19:31.601Z,97408.00
2023-01-03T06:24:02.181Z,97409.00
2023-01-03T06:28:06.699Z,97409.00
2023-01-03T06:32:10.374Z,97410.00
2023-01-03T06:36:47.679Z,97417.00
2023-01-03T06:40:51.520Z,97414.00
2023-01-03T06:45:15.822Z,97415.00
2023-01-03T06:49:40.262Z,97411.00
2023-01-03T06:53:44.680Z,97419.00
2023-01-03T06:57:47.883Z,97419.00
2023-01-03T07:01:56.434Z,97428.00
2023-01-03T07:06:02.503Z,97425.00
2023-01-03T07:10:06.129Z,97427.00
2023-01-03T07:14:12.268Z,97437.00
2023-01-03T07:18:21.037Z,97432.00
2023-01-03T07:22:24.177Z,97431.00
2023-01-03T07:26:27.224Z,97439.00
2023-01-03T07:31:04.836Z,97449.00
2023-01-03T07:35:10.557Z,97463.00
2023-01-03T07:39:15.078Z,97471.00
2023-01-03T07:43:45.593Z,97476.00
2023-01-03T07:47:48.679Z,97473.00
2023-01-03T07:51:53.096Z,97471.00
2023-01-03T07:56:10.778Z,97477.00
2023-01-03T08:00:30.971Z,97480.00
2023-01-03T08:04:34.169Z,97489.00
2023-01-03T08:08:42.894Z,97487.00
2023-01-03T08:13:03.915Z,97489.00
2023-01-03T08:17:21.789Z,97498.00
2023-01-03T08:21:26.026Z,97491.00
2023-01-03T08:25:30.532Z,97501.00
2023-01-03T08:29:33.862Z,97519.00
2023-01-03T08:34:16.831Z,97513.00
2023-01-03T08:38:28.322Z,97521.00
2023-01-03T08:42:34.523Z,97516.00
2023-01-03T08:46:42.311Z,97519.00
2023-01-03T08:50:48.452Z,97513.00
2023-01-03T08:54:54.673Z,97522.00
2023-01-03T08:59:32.222Z,97531.00
2023-01-03T09:03:35.466Z,97534.00
2023-01-03T09:08:14.240Z,97538.00
2023-01-03T09:12:19.485Z,97542.00
2023-01-03T09:16:57.385Z,97537.00
2023-01-03T09:21:00.534Z,97554.00
2023-01-03T09:25:41.707Z,97552.00
2023-01-03T09:29:44.821Z,97556.00
2023-01-03T09:33:51.654Z,97555.00
2023-01-03T09:38:21.906Z,97566.00
2023-01-03T09:42:46.205Z,97563.00
2023-01-03T09:47:26.662Z,97557.00
2023-01-03T09:51:54.296Z,97568.00
2023-01-03T09:56:18.650Z,97566.00
2023-01-03T10:00:44.648Z,97561.00
2023-01-03T10:05:12.515Z,97561.00
2023-01-03T10:09:28.916Z,97557.00
2023-01-03T10:13:42.906Z,97549.00
2023-01-03T10:17:59.968Z,97553.00
2023-01-03T10:22:25.596Z,97534.00
2023-01-03T10:26:34.649Z,97537.00
2023-01-03T10:30:58.527Z,97548.00
2023-01-03T10:35:19.233Z,97538.00
2023-01-03T10:39:31.556Z,97537.00
2023-01-03T10:43:41.839Z,97538.00
2023-01-03T10:48:01.101Z,97541.00
2023-01-03T10:52:27.216Z,97529.00
2023-01-03T10:56:36.327Z,97534.00
2023-01-03T11:00:40.977Z,97533.00
2023-01-03T11:05:07.892Z,97528.00
2023-01-03T11:09:12.401Z,97526.00
2023-01-03T11:13:25.430Z,97529.00
2023-01-03T11:17:59.774Z,97527.00
2023-01-03T11:22:08.377Z,97527.00
2023-01-03T11:26:22.326Z,97524.00
2023-01-03T11:30:33.111Z,97518.00
2023-01-03T11:35:21.444Z,97521.00
2023-01-03T11:39:57.259Z,97524.00
2023-01-03T11:44:36.879Z,97519.00
2023-01-03T11:49:05.174Z,97509.00
2023-01-03T11:53:22.485Z,97500.00
2023-01-03T11:57:35.257Z,97504.00
2023-01-03T12:02:26.825Z,97496.00
2023-01-03T12:06:36.375Z,97499.00
2023-01-03T12:10:49.279Z,97505.00
2023-01-03T12:14:56.828Z,97502.00
2023-01-03T12:19:09.956Z,97510.00
2023-01-03T12:23:24.509Z,97499.00
2023-01-03T12:27:36.426Z,97510.00
2023-01-03T12:31:49.828Z,97495.00
2023-01-03T12:35:58.713Z,97514.00
2023-01-03T12:40:04.075Z,97504.00
2023-01-03T12:44:43.549Z,97510.00
2023-01-03T12:49:06.980Z,97509.00
2023-01-03T12:53:19.176Z,97515.00
2023-01-03T12:58:00.696Z,97504.00
2023-01-03T13:02:23.106Z,97495.00
2023-01-03T13:06:39.382Z,97484.00
2023-01-03T13:10:47.590Z,97484.00
2023-01-03T13:14:58.597Z,97482.00
2023-01-03T13:19:34.853Z,97470.00
2023-01-03T13:24:05.571Z,97474.00
2023-01-03T13:28:31.861Z,97479.00
2023-01-03T13:32:58.511Z,97481.00
2023-01-03T13:37:15.260Z,97481.00
2023-01-03T13:41:35.383Z,97479.00
2023-01-03T13:46:01.709Z,97481.00
2023-01-03T13:50:05.154Z,97490.00
2023-01-03T13:54:30.066Z,97487.00
2023-01-03T13:58:41.470Z,97486.00
2023-01-03T14:03:27.281Z,97483.00
2023-01-03T14:07:51.910Z,97489.00
2023-01-03T14:12:11.270Z,97502.00
2023-01-03T14:16:22.505Z,97502.00
2023-01-03T14:20:36.201Z,97504.00
2023-01-03T14:25:07.790Z,97517.00
2023-01-03T14:29:18.807Z,97499.00
2023-01-03T14:33:24.559Z,97498.00
2023-01-03T14:37:31.280Z,97511.00
2023-01-03T14:41:37.596Z,97510.00
2023-01-03T14:46:13.287Z,97517.00
2023-01-03T14:50:21.414Z,97520.00
2023-01-03T14:54:25.879Z,97518.00
2023-01-03T14:58:34.853Z,97503.00
2023-01-03T15:02:40.585Z,97516.00
2023-01-03T15:07:13.971Z,97512.00
2023-01-03T15:11:25.136Z,97514.00
2023-01-03T15:15:31.557Z,97522.00
2023-01-03T15:19:36.045Z,97520.00
2023-01-03T15:23:43.431Z,97526.00
2023-01-03T15:27:50.403Z,97531.00
2023-01-03T15:32:00.837Z,97534.00
2023-01-03T15:36:06.889Z,97533.00
2023-01-03T15:40:41.184Z,97529.00
2023-01-03T15:44:49.521Z,97531.00
2023-01-03T15:49:24.368Z,97527.00
2023-01-03T15:53:35.442Z,97534.00
2023-01-03T15:58:05.438Z,97534.00
2023-01-03T16:02:25.102Z,97550.00
2023-01-03T16:06:35.897Z,97543.00
2023-01-03T16:11:05.304Z,97547.00
2023-01-03T16:15:43.656Z,97556.00
2023-01-03T16:19:51.690Z,97551.00
2023-01-03T16:23:57.201Z,97540.00
2023-01-03T16:28:00.462Z,97549.00
2023-01-03T16:32:40.317Z,97542.00
2023-01-03T16:36:47.280Z,97556.00
2023-01-03T16:40:53.321Z,97551.00
2023-01-03T16:44:57.532Z,97544.00
2023-01-03T16:49:00.891Z,97552.00
2023-01-03T16:53:10.059Z,97548.00
2023-01-03T16:57:53.657Z,97548.00
2023-01-03T17:01:59.580Z,97554.00
2023-01-03T17:06:04.937Z,97545.00
2023-01-03T17:10:39.057Z,97552.00
2023-01-03T17:14:47.450Z,97553.00
2023-01-03T17:18:50.945Z,97552.00
2023-01-03T17:23:27.545Z,97558.00
2023-01-03T17:27:33.785Z,97566.00
2023-01-03T17:31:38.266Z,97567.00
2023-01-03T17:35:48.512Z,97570.00
2023-01-03T17:40:20.661Z,97575.00
2023-01-03T17:44:23.757Z,97586.00
2023-01-03T17:48:51.241Z,97581.00
2023-01-03T17:52:58.742Z,97583.00
2023-01-03T17:57:31.637Z,97578.00
2023-01-03T18:01:45.818Z,97586.00
2023-01-03T18:05:50.438Z,97579.00
2023-01-03T18:09:56.639Z,97590.00
2023-01-03T18:13:59.689Z,97590.00
2023-01-03T18:18:05.391Z,97585.00
2023-01-03T18:22:41.164Z,97593.00
2023-01-03T18:26:48.839Z,97590.00
2023-01-03T18:31:20.333Z,97594.00
2023-01-03T18:35:55.974Z,97593.00
2023-01-03T18:40:32.513Z,97587.00
2023-01-03T18:45:11.966Z,97585.00
2023-01-03T18:49:45.155Z,97582.00
2023-01-03T18:54:25.347Z,97580.00
2023-01-03T18:59:11.618Z,97586.00
2023-01-03T19:03:38.209Z,97573.00
2023-01-03T19:07:44.799Z,97585.00
2023-01-03T19:12:22.071Z,97582.00
2023-01-03T19:16:57.649Z,97581.00
2023-01-03T19:21:34.750Z,97587.00
2023-01-03T19:25:42.592Z,97590.00
2023-01-03T19:30:20.529Z,97583.00
2023-01-03T19:34:57.955Z,97586.00
2023-01-03T19:39:37.599Z,97602.00
2023-01-03T19:44:19.244Z,97591.00
2023-01-03T19:48:47.620Z,97597.00
2023-01-03T19:52:53.475Z,97597.00
2023-01-03T19:57:02.068Z,97587.00
2023-01-03T20:01:07.003Z,97588.00
2023-01-03T20:05:23.899Z,97591.00
2023-01-03T20:09:28.962Z,97592.00
2023-01-03T20:14:04.786Z,97587.00
2023-01-03T20:18:24.491Z,97578.00
2023-01-03T20:27:07.595Z,97590.00
2023-01-03T20:31:44.318Z,97591.00
2023-01-03T20:36:23.648Z,97586.00
2023-01-03T20:40:30.165Z,97582.00
2023-01-03T20:44:35.842Z,97588.00
2023-01-03T20:48:38.892Z,97587.00
2023-01-03T20:52:41.932Z,97580.00
2023-01-03T20:56:48.152Z,97587.00
2023-01-03T21:01:21.664Z,97583.00
2023-01-03T21:06:19.683Z,97583.00
2023-01-03T21:10:24.879Z,97580.00
2023-01-03T21:14:29.330Z,97589.00
2023-01-03T21:19:04.864Z,97586.00
2023-01-03T21:23:08.454Z,97579.00
2023-01-03T21:27:13.572Z,97573.00
2023-01-03T21:31:50.394Z,97581.00
2023-01-03T21:36:31.146Z,97579.00
2023-01-03T21:40:34.890Z,97573.00
2023-01-03T21:44:39.628Z,97575.00
2023-01-03T21:48:44.781Z,97571.00
2023-01-03T21:53:22.003Z,97579.00
2023-01-03T21:57:25.077Z,97569.00
2023-01-03T22:01:51.096Z,97562.00
2023-01-03T22:06:51.172Z,97564.00
2023-01-03T22:10:57.542Z,97548.00
2023-01-03T22:15:00.596Z,97543.00
2023-01-03T22:19:03.650Z,97549.00
2023-01-03T22:23:44.985Z,97553.00
2023-01-03T22:27:57.467Z,97553.00
2023-01-03T22:32:00.582Z,97562.00
2023-01-03T22:36:37.504Z,97551.00
2023-01-03T22:40:40.626Z,97546.00
2023-01-03T22:44:45.323Z,97542.00
2023-01-03T22:49:18.975Z,97547.00
2023-01-03T22:53:24.156Z,97551.00
2023-01-03T22:57:27.470Z,97550.00
2023-01-03T23:01:34.072Z,97547.00
2023-01-03T23:05:41.312Z,97546.00
2023-01-03T23:10:12.401Z,97556.00
2023-01-03T23:14:17.953Z,97548.00
2023-01-03T23:18:23.754Z,97542.00
2023-01-03T23:22:27.008Z,97543.00
2023-01-03T23:27:07.497Z,97545.00
2023-01-03T23:31:13.708Z,97535.00
2023-01-03T23:35:18.558Z,97536.00
2023-01-03T23:39:21.729Z,97530.00
2023-01-03T23:43:25.527Z,97524.00
2023-01-03T23:47:28.614Z,97520.00
2023-01-03T23:51:44.552Z,97513.00
2023-01-03T23:55:52.658Z,97501.00
